Aviation Digital Data Service (ADDS)

Output produced by METARs form (0151 UTC 03 July 2022)
found at http://www.aviationweather.gov/metar/data/
 
METAR text: WSSL 030100Z 14004KT 090V170 9999 FEW018 BKN280 29/24 Q1008
Conditions at: WSSL (SINGAPORE/SELETA, SG) observed 0100 UTC 03 July 2022
Temperature: 29.0°C (84°F)
Dewpoint: 24.0°C (75°F) [RH = 74%]
Pressure (altimeter): 29.76 inches Hg (1008.0 mb)
Winds: from the SE (140 degrees) at 5 MPH (4 knots; 2.1 m/s)
Visibility: 6 or more miles (10+ km)
Ceiling: 28000 feet AGL
Clouds: few clouds at 1800 feet AGL
broken clouds at 28000 feet AGL
Weather: no significant weather observed at this time

Forecast for: WSSL (SINGAPORE/SELETA, SG)
Text: TAF WSSL 022300Z 0300/0406 17009KT 9999 FEW015 SCT020
Forecast period: 0000 UTC 03 July 2022 to 0600 UTC 04 July 2022
Forecast type: FROM: standard forecast or significant change
Winds: from the S (170 degrees) at 10 MPH (9 knots; 4.6 m/s)
Visibility: 6 or more miles (10+ km)
Ceiling: at least 12,000 feet AGL
Clouds: few clouds at 1500 feet AGL
scattered clouds at 2000 feet AGL
Weather: no significant weather forecast for this period